Time;durP1;ratioP1;P1;durP2;ratioP2;P2;SDS_P1;SDS_P2;PMS_P1;PMS_P2;Temp;Humidity;BMP_temperature;BMP_pressure;BME280_temperature;BME280_humidity;BME280_pressure;Samples;Min_cycle;Max_cycle;Signal;HPM_P1;HPM_P2
2022/10/28 00:01:12;;;;;;;24.25;11.65;;;;;;;14.22;100.00;101719.38;5068022;28;20037;-70
2022/10/28 00:03:41;;;;;;;26.35;12.10;;;;;;;14.25;100.00;101713.81;5064714;28;20036;-71
2022/10/28 00:06:19;;;;;;;22.15;9.57;;;;;;;14.12;100.00;101710.22;5065481;28;20102;-70
2022/10/28 00:08:45;;;;;;;23.92;10.60;;;;;;;14.07;100.00;101714.16;5065166;28;20074;-70
2022/10/28 00:11:18;;;;;;;27.17;10.73;;;;;;;13.96;100.00;101722.88;5063770;28;20063;-70
2022/10/28 00:13:45;;;;;;;24.98;12.52;;;;;;;13.98;100.00;101704.88;5062279;28;20062;-70
2022/10/28 00:16:17;;;;;;;25.67;12.07;;;;;;;13.97;100.00;101717.41;5063867;28;20044;-70
2022/10/28 00:18:43;;;;;;;19.52;9.68;;;;;;;13.58;100.00;101715.41;5061507;28;20044;-73
2022/10/28 00:21:12;;;;;;;15.05;8.20;;;;;;;13.42;100.00;101717.31;5064786;28;20028;-69
2022/10/28 00:23:38;;;;;;;16.77;8.60;;;;;;;13.47;100.00;101721.44;5059770;28;20808;-70
2022/10/28 00:26:05;;;;;;;21.00;10.32;;;;;;;13.49;100.00;101713.28;5055101;28;20040;-70
2022/10/28 00:28:31;;;;;;;17.67;10.23;;;;;;;13.43;100.00;101717.22;5063871;28;20048;-69
2022/10/28 00:31:02;;;;;;;17.02;11.10;;;;;;;13.50;100.00;101725.72;5058800;28;20051;-70
2022/10/28 00:33:27;;;;;;;26.17;9.60;;;;;;;13.53;100.00;101716.66;5061935;28;20048;-70
2022/10/28 00:35:53;;;;;;;20.27;10.52;;;;;;;13.56;100.00;101719.16;5077576;28;20041;-69
2022/10/28 00:38:18;;;;;;;34.65;13.27;;;;;;;13.60;100.00;101718.00;5060090;28;20045;-69
2022/10/28 00:40:44;;;;;;;21.33;11.00;;;;;;;13.61;100.00;101709.88;5061567;28;20051;-71
2022/10/28 00:43:11;;;;;;;21.88;11.25;;;;;;;13.63;100.00;101707.09;5059664;28;20049;-69
2022/10/28 00:45:37;;;;;;;28.30;11.57;;;;;;;13.62;100.00;101702.69;5056792;28;20519;-70
2022/10/28 00:48:04;;;;;;;31.77;12.00;;;;;;;13.63;100.00;101701.72;5058032;28;20071;-69
2022/10/28 00:50:47;;;;;;;21.05;11.43;;;;;;;13.62;100.00;101705.38;5050161;28;20075;-70
2022/10/28 00:53:24;;;;;;;18.20;9.77;;;;;;;13.53;100.00;101701.44;5060162;28;20029;-70
2022/10/28 00:55:51;;;;;;;18.73;9.85;;;;;;;13.42;100.00;101695.88;5057357;28;20090;-69
2022/10/28 00:58:19;;;;;;;28.92;10.07;;;;;;;13.54;100.00;101696.94;5055928;28;20058;-69
2022/10/28 01:00:45;;;;;;;18.80;10.80;;;;;;;13.36;100.00;101696.28;5060096;28;20434;-70
2022/10/28 01:03:10;;;;;;;16.45;9.43;;;;;;;13.21;100.00;101693.56;5060306;28;20025;-70
2022/10/28 01:05:45;;;;;;;17.45;9.30;;;;;;;13.28;100.00;101699.41;5060317;28;20044;-70
2022/10/28 01:08:10;;;;;;;17.85;9.13;;;;;;;13.32;100.00;101689.38;5058334;28;20028;-70
2022/10/28 01:10:42;;;;;;;25.45;10.95;;;;;;;13.31;100.00;101687.66;5049094;28;20039;-70
2022/10/28 01:13:25;;;;;;;26.03;12.07;;;;;;;13.22;100.00;101689.06;5048610;28;20119;-69
2022/10/28 01:16:04;;;;;;;22.05;11.55;;;;;;;13.35;100.00;101681.13;5056272;28;20473;-70
2022/10/28 01:19:07;;;;;;;22.17;10.57;;;;;;;13.29;100.00;101670.78;5052068;28;20045;-71
2022/10/28 01:21:47;;;;;;;23.33;12.45;;;;;;;13.30;100.00;101673.38;5055911;28;20056;-68
2022/10/28 01:24:18;;;;;;;17.10;10.50;;;;;;;13.18;100.00;101674.09;5055145;28;20063;-68
2022/10/28 01:27:11;;;;;;;17.13;9.48;;;;;;;13.13;100.00;101665.50;5027761;28;20689;-70
2022/10/28 01:29:58;;;;;;;18.77;8.75;;;;;;;13.01;100.00;101663.56;5060574;28;20837;-71
2022/10/28 01:32:48;;;;;;;21.48;9.55;;;;;;;13.02;100.00;101666.16;5050165;28;20366;-71
2022/10/28 01:35:34;;;;;;;13.05;7.53;;;;;;;12.78;100.00;101662.25;5057515;28;20055;-71
2022/10/28 01:38:13;;;;;;;22.83;10.13;;;;;;;12.64;100.00;101660.38;5067846;28;20030;-70
2022/10/28 01:41:00;;;;;;;17.63;9.23;;;;;;;12.76;100.00;101662.34;5044630;28;20405;-72
2022/10/28 01:43:39;;;;;;;20.15;11.02;;;;;;;12.74;100.00;101653.53;5054510;28;20080;-71
2022/10/28 01:46:16;;;;;;;16.17;9.30;;;;;;;12.82;100.00;101647.75;5054685;28;20124;-70
2022/10/28 01:48:50;;;;;;;23.33;10.48;;;;;;;12.88;100.00;101648.22;5070128;28;20052;-70
2022/10/28 01:51:21;;;;;;;24.25;11.77;;;;;;;13.01;100.00;101650.19;5056144;28;20152;-69
2022/10/28 01:53:51;;;;;;;16.65;8.65;;;;;;;12.83;100.00;101646.78;5056387;28;20035;-68
2022/10/28 01:56:26;;;;;;;12.95;8.13;;;;;;;12.71;100.00;101645.72;5056723;28;20037;-68
2022/10/28 01:58:56;;;;;;;14.85;7.22;;;;;;;12.63;100.00;101640.78;5069994;28;21431;-70
2022/10/28 02:01:23;;;;;;;16.15;6.20;;;;;;;12.54;100.00;101635.97;5049962;28;20055;-72
2022/10/28 02:03:50;;;;;;;20.00;9.50;;;;;;;12.58;100.00;101640.22;5054016;28;20045;-70
2022/10/28 02:06:22;;;;;;;19.98;10.27;;;;;;;12.62;100.00;101647.09;5055934;28;20048;-71
2022/10/28 02:09:05;;;;;;;;;;;;;;;12.64;100.00;101647.00;5059478;28;20041;-70
2022/10/28 02:11:43;;;;;;;25.42;10.60;;;;;;;12.86;100.00;101642.13;5057250;28;20535;-69
2022/10/28 02:14:30;;;;;;;23.50;10.77;;;;;;;12.79;100.00;101648.78;5058025;28;20044;-71
2022/10/28 02:17:01;;;;;;;18.95;10.90;;;;;;;12.87;100.00;101651.00;5071270;28;20032;-70
2022/10/28 02:19:40;;;;;;;33.00;10.73;;;;;;;12.84;100.00;101645.81;5052424;28;20051;-71
2022/10/28 02:22:24;;;;;;;23.50;11.25;;;;;;;12.86;100.00;101643.94;5057579;28;20041;-71
2022/10/28 02:25:15;;;;;;;19.92;10.88;;;;;;;12.80;100.00;101636.25;5058667;28;20040;-68
2022/10/28 02:28:00;;;;;;;25.08;11.25;;;;;;;12.92;100.00;101638.22;5055425;28;20055;-71
2022/10/28 02:30:42;;;;;;;25.65;12.27;;;;;;;12.86;100.00;101638.59;5056212;28;20427;-70
2022/10/28 02:33:14;;;;;;;19.83;10.67;;;;;;;12.75;100.00;101641.00;5051490;28;20068;-71
2022/10/28 02:35:56;;;;;;;24.25;10.65;;;;;;;12.84;100.00;101637.78;5057251;28;20040;-71
2022/10/28 02:38:24;;;;;;;;;;;;;;;12.86;100.00;101628.72;5072924;28;20048;-70
2022/10/28 02:40:55;;;;;;;22.73;10.82;;;;;;;12.87;100.00;101626.91;5063144;28;19923;-70
2022/10/28 02:43:23;;;;;;;24.85;10.38;;;;;;;12.92;100.00;101628.34;5051496;28;20048;-71
2022/10/28 02:45:53;;;;;;;27.10;10.60;;;;;;;12.79;100.00;101619.34;5057116;28;20483;-69
2022/10/28 02:48:29;;;;;;;19.58;10.52;;;;;;;12.93;100.00;101615.81;5058191;28;20044;-69
2022/10/28 02:51:24;;;;;;;23.02;10.15;;;;;;;13.11;100.00;101611.19;5087968;28;20714;-70
2022/10/28 02:54:01;;;;;;;26.10;9.48;;;;;;;13.14;100.00;101617.19;5057948;28;20095;-70
2022/10/28 02:56:31;;;;;;;24.77;9.20;;;;;;;13.32;100.00;101614.38;5054104;28;20051;-71
2022/10/28 02:58:57;;;;;;;23.27;8.88;;;;;;;13.39;100.00;101608.50;5056369;28;20131;-69
2022/10/28 03:01:22;;;;;;;33.72;11.93;;;;;;;13.40;100.00;101610.25;5056755;28;20041;-70
2022/10/28 03:03:47;;;;;;;21.52;10.02;;;;;;;13.55;100.00;101602.19;5061159;28;20047;-70
2022/10/28 03:06:13;;;;;;;36.00;10.65;;;;;;;13.58;100.00;101605.53;5056969;28;20048;-69
2022/10/28 03:08:38;;;;;;;26.33;10.15;;;;;;;13.64;100.00;101589.06;5060126;28;20043;-70
2022/10/28 03:11:04;;;;;;;25.05;10.48;;;;;;;13.56;100.00;101594.06;5063415;28;20040;-70
2022/10/28 03:13:29;;;;;;;17.63;8.05;;;;;;;13.71;100.00;101595.75;5063109;28;20041;-70
2022/10/28 03:15:55;;;;;;;20.85;9.57;;;;;;;13.69;100.00;101591.44;5051412;28;20040;-70
2022/10/28 03:18:20;;;;;;;24.48;9.70;;;;;;;13.66;100.00;101591.66;5061839;28;20033;-70
2022/10/28 03:20:46;;;;;;;20.80;8.68;;;;;;;13.73;100.00;101593.84;5062686;28;20535;-69
2022/10/28 03:23:11;;;;;;;21.00;10.10;;;;;;;13.71;100.00;101585.03;5052880;28;20078;-69
2022/10/28 03:25:37;;;;;;;24.58;9.85;;;;;;;13.69;100.00;101592.31;5067133;28;20371;-70
2022/10/28 03:28:02;;;;;;;20.92;9.07;;;;;;;13.80;100.00;101588.06;5060787;28;20109;-70
2022/10/28 03:30:27;;;;;;;19.33;8.45;;;;;;;13.83;100.00;101591.41;5061304;28;20044;-70
2022/10/28 03:32:53;;;;;;;18.00;8.38;;;;;;;13.85;100.00;101597.53;5055735;28;20044;-70
2022/10/28 03:35:18;;;;;;;21.30;7.65;;;;;;;13.69;100.00;101591.44;5060155;28;20090;-70
2022/10/28 03:37:44;;;;;;;18.30;8.23;;;;;;;13.71;100.00;101592.22;5083343;28;20508;-69
2022/10/28 03:40:10;;;;;;;19.65;9.18;;;;;;;13.80;100.00;101594.28;5060776;28;20033;-70
2022/10/28 03:42:36;;;;;;;18.40;7.72;;;;;;;13.70;100.00;101594.06;5061397;28;20095;-70
2022/10/28 03:45:01;;;;;;;23.48;9.13;;;;;;;13.71;100.00;101590.41;5059716;28;20028;-70
2022/10/28 03:47:27;;;;;;;18.85;9.35;;;;;;;13.74;100.00;101590.19;5061403;28;20052;-70
2022/10/28 03:49:52;;;;;;;23.77;8.57;;;;;;;13.71;100.00;101585.03;5072819;28;20067;-69
2022/10/28 03:52:18;;;;;;;28.80;8.88;;;;;;;13.73;100.00;101585.78;5058740;28;20044;-69
2022/10/28 03:54:43;;;;;;;22.38;8.63;;;;;;;13.68;100.00;101585.22;5060586;28;20056;-70
2022/10/28 03:57:09;;;;;;;20.05;8.45;;;;;;;13.84;100.00;101581.56;5058345;28;20043;-70
2022/10/28 03:59:34;;;;;;;21.05;8.43;;;;;;;13.68;100.00;101582.53;5054280;28;20070;-70
2022/10/28 04:01:59;;;;;;;29.33;9.68;;;;;;;13.71;100.00;101579.69;5062259;28;20043;-70
2022/10/28 04:04:25;;;;;;;17.00;8.57;;;;;;;13.84;100.00;101581.56;5055237;28;20033;-70
2022/10/28 04:06:50;;;;;;;24.40;9.00;;;;;;;13.82;100.00;101583.47;5062035;28;20505;-70
2022/10/28 04:09:16;;;;;;;17.85;7.30;;;;;;;13.74;100.00;101582.16;5057416;28;20044;-70
2022/10/28 04:11:41;;;;;;;20.92;8.38;;;;;;;13.86;100.00;101580.50;5062963;28;20110;-69
2022/10/28 04:14:07;;;;;;;20.42;8.25;;;;;;;13.98;100.00;101581.50;5060259;28;20397;-71
2022/10/28 04:16:32;;;;;;;27.45;9.32;;;;;;;14.06;100.00;101579.19;5062211;28;20947;-70
2022/10/28 04:18:57;;;;;;;19.90;8.10;;;;;;;14.00;100.00;101582.25;5061204;28;20568;-70
2022/10/28 04:21:23;;;;;;;15.82;7.53;;;;;;;13.93;100.00;101592.53;5057625;28;20542;-69
2022/10/28 04:23:48;;;;;;;21.63;7.78;;;;;;;13.97;100.00;101587.84;5060761;28;20307;-69
2022/10/28 04:26:14;;;;;;;17.58;7.95;;;;;;;13.97;100.00;101586.03;5054959;28;20070;-70
2022/10/28 04:28:39;;;;;;;17.40;6.75;;;;;;;13.98;100.00;101590.41;5059906;28;20044;-69
2022/10/28 04:31:05;;;;;;;22.83;7.47;;;;;;;13.92;100.00;101596.19;5059392;28;20051;-69
2022/10/28 04:33:31;;;;;;;24.38;7.75;;;;;;;13.87;100.00;101595.63;5074272;28;20060;-71
2022/10/28 04:35:56;;;;;;;21.30;7.47;;;;;;;13.90;100.00;101584.69;5054701;28;20052;-70
2022/10/28 04:38:22;;;;;;;21.02;7.50;;;;;;;13.96;100.00;101586.97;5056799;28;20048;-70
2022/10/28 04:40:48;;;;;;;17.80;6.85;;;;;;;13.95;100.00;101582.56;5051039;28;20032;-69
2022/10/28 04:43:14;;;;;;;20.85;9.07;;;;;;;14.05;100.00;101581.97;5060265;28;20122;-70
2022/10/28 04:45:40;;;;;;;15.80;7.95;;;;;;;14.03;100.00;101583.91;5062238;28;20037;-70
2022/10/28 04:48:08;;;;;;;24.38;8.35;;;;;;;13.96;100.00;101583.44;5060866;28;20048;-70
2022/10/28 04:50:34;;;;;;;17.10;8.75;;;;;;;13.96;100.00;101581.63;5075748;28;20041;-70
2022/10/28 04:53:08;;;;;;;21.17;7.93;;;;;;;14.08;100.00;101576.41;5058939;28;20607;-70
2022/10/28 04:55:34;;;;;;;19.17;8.77;;;;;;;14.04;100.00;101582.94;5061130;28;20039;-70
2022/10/28 04:58:00;;;;;;;21.77;7.85;;;;;;;13.99;100.00;101584.09;5061256;28;20037;-70
2022/10/28 05:00:27;;;;;;;19.70;9.05;;;;;;;13.95;100.00;101581.69;5059035;28;20037;-70
2022/10/28 05:02:52;;;;;;;13.32;7.15;;;;;;;14.07;100.00;101582.75;5056984;28;20046;-70
2022/10/28 05:05:18;;;;;;;21.13;8.38;;;;;;;14.09;100.00;101578.97;5059433;28;20044;-68
2022/10/28 05:07:44;;;;;;;28.55;9.75;;;;;;;14.15;100.00;101577.69;5059927;28;20048;-69
2022/10/28 05:10:14;;;;;;;25.98;8.93;;;;;;;14.16;100.00;101579.44;5075010;28;20052;-69
2022/10/28 05:12:43;;;;;;;22.80;8.10;;;;;;;14.09;100.00;101576.28;5052987;28;20085;-69
2022/10/28 05:15:10;;;;;;;31.73;8.05;;;;;;;14.00;100.00;101580.44;5058157;28;20051;-68
2022/10/28 05:17:42;;;;;;;18.63;7.35;;;;;;;14.09;100.00;101570.06;5049576;28;20134;-69
2022/10/28 05:20:10;;;;;;;23.58;9.57;;;;;;;14.23;100.00;101581.59;5056761;28;20064;-68
2022/10/28 05:22:36;;;;;;;19.75;7.57;;;;;;;14.11;100.00;101577.06;5054059;28;20048;-69
2022/10/28 05:25:03;;;;;;;27.02;8.73;;;;;;;14.00;100.00;101575.06;5059135;28;20037;-70
2022/10/28 05:27:28;;;;;;;26.70;9.00;;;;;;;14.04;100.00;101577.56;5051525;28;20076;-69
2022/10/28 05:29:54;;;;;;;19.00;8.73;;;;;;;14.14;100.00;101576.00;5053526;28;20055;-69
2022/10/28 05:32:19;;;;;;;22.30;7.93;;;;;;;14.10;100.00;101578.00;5053723;28;20044;-70
2022/10/28 05:34:45;;;;;;;23.95;7.90;;;;;;;13.95;100.00;101573.66;5054772;28;20047;-70
2022/10/28 05:37:10;;;;;;;22.85;8.95;;;;;;;14.00;100.00;101575.06;5055620;28;20037;-70
2022/10/28 05:39:36;;;;;;;18.95;7.22;;;;;;;13.98;100.00;101570.78;5057340;28;20040;-68
2022/10/28 05:42:01;;;;;;;21.83;8.20;;;;;;;13.92;100.00;101569.38;5059564;28;20032;-68
2022/10/28 05:44:27;;;;;;;15.75;7.30;;;;;;;13.89;100.00;101571.38;5054221;28;20110;-69
2022/10/28 05:46:53;;;;;;;21.80;8.88;;;;;;;13.88;100.00;101564.31;5056538;28;20097;-69
2022/10/28 05:49:19;;;;;;;17.90;7.50;;;;;;;13.80;100.00;101567.47;5057918;28;20036;-69
2022/10/28 05:51:45;;;;;;;18.30;7.80;;;;;;;13.69;100.00;101564.66;5054379;28;20148;-69
2022/10/28 05:54:11;;;;;;;14.98;7.20;;;;;;;13.61;100.00;101567.84;5057076;28;20029;-70
2022/10/28 05:56:36;;;;;;;18.40;7.80;;;;;;;13.68;100.00;101573.66;5053198;28;20044;-69
2022/10/28 05:59:02;;;;;;;21.23;8.02;;;;;;;13.59;100.00;101572.41;5057864;28;20153;-68
2022/10/28 06:01:27;;;;;;;16.63;7.18;;;;;;;13.66;100.00;101571.06;5056122;28;20132;-70
2022/10/28 06:03:53;;;;;;;15.57;7.82;;;;;;;13.64;100.00;101572.97;5057318;28;20033;-69
2022/10/28 06:06:18;;;;;;;31.52;8.52;;;;;;;13.74;100.00;101568.75;5056734;28;20078;-69
2022/10/28 06:08:44;;;;;;;29.15;8.70;;;;;;;13.61;100.00;101570.50;5059185;28;20043;-68
2022/10/28 06:11:09;;;;;;;20.80;8.45;;;;;;;13.53;100.00;101569.28;5056062;28;20048;-68
2022/10/28 06:13:35;;;;;;;18.63;7.68;;;;;;;13.50;100.00;101575.69;5058315;28;20037;-68
2022/10/28 06:16:00;;;;;;;25.10;8.65;;;;;;;13.53;100.00;101570.13;5053257;28;20056;-69
2022/10/28 06:18:26;;;;;;;28.38;9.48;;;;;;;13.46;100.00;101577.72;5045931;28;20052;-70
2022/10/28 06:20:58;;;;;;;28.30;8.95;;;;;;;13.44;100.00;101576.06;5051181;28;20405;-70
2022/10/28 06:23:24;;;;;;;;;;;;;;;13.49;100.00;101584.69;5057509;28;20119;-69
2022/10/28 06:25:50;;;;;;;20.95;8.13;;;;;;;13.48;100.00;101591.84;5057292;28;19970;-70
2022/10/28 06:28:16;;;;;;;27.13;8.27;;;;;;;13.47;100.00;101587.47;5055314;28;20807;-69
2022/10/28 06:30:42;;;;;;;26.48;8.88;;;;;;;13.63;100.00;101597.22;5058333;28;20428;-70
2022/10/28 06:33:07;;;;;;;22.95;8.27;;;;;;;13.67;100.00;101586.19;5056144;28;20041;-69
2022/10/28 06:35:33;;;;;;;19.42;7.78;;;;;;;13.73;100.00;101588.47;5050887;28;20493;-69
2022/10/28 06:37:58;;;;;;;21.65;7.93;;;;;;;13.74;100.00;101578.59;5055797;28;20772;-72
2022/10/28 06:40:25;;;;;;;26.35;9.32;;;;;;;13.87;100.00;101576.84;5052213;28;20029;-73
2022/10/28 06:43:01;;;;;;;20.75;9.02;;;;;;;13.94;100.00;101578.16;5057289;28;20079;-71
2022/10/28 06:45:28;;;;;;;24.58;8.43;;;;;;;14.01;100.00;101578.63;5053700;28;20488;-69
2022/10/28 06:47:56;;;;;;;23.20;8.00;;;;;;;14.04;100.00;101583.78;5052292;28;20039;-70
2022/10/28 06:50:21;;;;;;;23.58;7.85;;;;;;;14.04;100.00;101591.81;5057214;28;20064;-70
2022/10/28 06:52:47;;;;;;;19.20;7.65;;;;;;;14.11;100.00;101592.31;5052689;28;20584;-70
2022/10/28 06:55:12;;;;;;;23.33;7.63;;;;;;;14.22;100.00;101587.94;5058149;28;20109;-70
2022/10/28 06:57:38;;;;;;;19.58;8.05;;;;;;;14.29;100.00;101600.94;5054705;28;20028;-68
2022/10/28 07:00:04;;;;;;;17.35;7.45;;;;;;;14.35;100.00;101605.88;5053090;28;20591;-68
2022/10/28 07:02:29;;;;;;;26.63;7.57;;;;;;;14.37;100.00;101604.84;5052859;28;20036;-70
2022/10/28 07:04:54;;;;;;;26.65;7.65;;;;;;;14.49;100.00;101609.41;5055165;28;20751;-70
2022/10/28 07:07:20;;;;;;;21.02;6.95;;;;;;;14.45;100.00;101607.84;5051225;28;20134;-70
2022/10/28 07:09:45;;;;;;;18.25;7.50;;;;;;;14.71;100.00;101605.28;5057259;28;20028;-70
2022/10/28 07:12:11;;;;;;;15.60;6.53;;;;;;;14.93;100.00;101610.88;5080394;28;20071;-70
2022/10/28 07:14:36;;;;;;;19.55;7.20;;;;;;;14.86;100.00;101606.91;5055103;28;20037;-69
2022/10/28 07:17:02;;;;;;;17.17;6.75;;;;;;;14.93;100.00;101612.69;5049075;28;20040;-70
2022/10/28 07:19:27;;;;;;;17.13;6.68;;;;;;;14.97;100.00;101604.31;5046016;28;20064;-69
2022/10/28 07:21:53;;;;;;;22.98;7.22;;;;;;;14.97;100.00;101600.78;5052859;28;20036;-69
2022/10/28 07:24:18;;;;;;;17.90;8.07;;;;;;;15.10;100.00;101601.63;5068168;28;20059;-70
2022/10/28 07:26:47;;;;;;;20.27;7.18;;;;;;;15.25;100.00;101607.75;5057192;28;20106;-70
2022/10/28 07:29:12;;;;;;;21.77;7.57;;;;;;;15.29;100.00;101598.50;5056871;28;20024;-70
2022/10/28 07:31:37;;;;;;;19.73;7.55;;;;;;;15.38;100.00;101605.06;5054154;28;20435;-70
2022/10/28 07:34:03;;;;;;;14.75;7.38;;;;;;;15.36;100.00;101615.94;5051327;28;20480;-68
2022/10/28 07:36:28;;;;;;;18.85;7.25;;;;;;;15.37;100.00;101612.25;5057359;28;20040;-68
2022/10/28 07:38:54;;;;;;;21.60;7.22;;;;;;;15.39;100.00;101613.00;5079499;28;20047;-70
2022/10/28 07:41:20;;;;;;;15.18;7.07;;;;;;;15.55;100.00;101616.31;5057102;28;20029;-68
2022/10/28 07:43:46;;;;;;;18.67;7.68;;;;;;;15.65;100.00;101613.00;5059194;28;20036;-69
2022/10/28 07:46:12;;;;;;;23.08;7.47;;;;;;;15.76;100.00;101605.88;5050937;28;20923;-69
2022/10/28 07:48:39;;;;;;;19.98;7.65;;;;;;;15.82;100.00;101617.16;5059781;28;20040;-69
2022/10/28 07:51:06;;;;;;;20.15;7.25;;;;;;;15.80;100.00;101611.88;5058451;28;20059;-70
2022/10/28 07:53:32;;;;;;;18.05;7.93;;;;;;;15.87;100.00;101606.94;5053235;28;20053;-70
2022/10/28 07:56:01;;;;;;;18.27;7.82;;;;;;;15.87;100.00;101602.41;5057339;28;20865;-68
2022/10/28 07:58:27;;;;;;;18.77;6.38;;;;;;;15.93;100.00;101603.78;5049591;28;20068;-69
2022/10/28 08:00:53;;;;;;;15.65;6.72;;;;;;;15.95;100.00;101604.50;5055602;28;20109;-68
2022/10/28 08:03:19;;;;;;;21.27;7.20;;;;;;;16.04;100.00;101596.63;5053859;28;20048;-68
2022/10/28 08:05:44;;;;;;;21.33;7.55;;;;;;;16.10;100.00;101603.38;5055814;28;20063;-68
2022/10/28 08:08:10;;;;;;;15.48;6.20;;;;;;;16.27;100.00;101604.81;5060198;28;20032;-68
2022/10/28 08:10:35;;;;;;;17.05;6.47;;;;;;;16.24;100.00;101608.59;5060599;28;20044;-69
2022/10/28 08:13:01;;;;;;;18.42;7.28;;;;;;;16.26;100.00;101608.47;5061428;28;20040;-67
2022/10/28 08:15:28;;;;;;;21.58;7.22;;;;;;;16.33;100.00;101609.75;5061673;28;20334;-67
2022/10/28 08:17:55;;;;;;;15.30;7.40;;;;;;;16.41;100.00;101615.38;5061186;28;20032;-69
2022/10/28 08:20:20;;;;;;;11.80;6.22;;;;;;;16.52;100.00;101609.22;5059907;28;20056;-69
2022/10/28 08:22:47;;;;;;;20.30;7.43;;;;;;;16.57;100.00;101607.03;5059284;28;20072;-68
2022/10/28 08:25:13;;;;;;;18.15;7.65;;;;;;;16.71;100.00;101601.44;5056458;28;20466;-68
2022/10/28 08:27:40;;;;;;;17.05;7.75;;;;;;;16.98;100.00;101609.25;5052657;28;20045;-72
2022/10/28 08:30:07;;;;;;;22.92;6.50;;;;;;;16.93;100.00;101611.44;5057117;28;20044;-68
2022/10/28 08:32:33;;;;;;;15.27;7.53;;;;;;;16.98;100.00;101611.94;5058484;28;20033;-69
2022/10/28 08:34:58;;;;;;;20.52;6.68;;;;;;;17.12;100.00;101615.38;5055397;28;20508;-69
2022/10/28 08:37:24;;;;;;;26.55;6.85;;;;;;;17.17;100.00;101607.78;5059013;28;20055;-68
2022/10/28 08:39:49;;;;;;;17.10;6.65;;;;;;;17.41;100.00;101611.22;5055234;28;20040;-66
2022/10/28 08:42:41;;;;;;;21.02;7.35;;;;;;;17.40;100.00;101612.22;5048112;28;20033;-68
2022/10/28 08:45:47;;;;;;;18.77;6.93;;;;;;;17.51;100.00;101595.16;5047263;28;20849;-69
2022/10/28 08:48:16;;;;;;;19.45;6.97;;;;;;;17.49;100.00;101602.53;5034418;28;20064;-69
2022/10/28 08:50:56;;;;;;;19.60;7.15;;;;;;;17.58;100.00;101597.25;5053358;28;20033;-68
2022/10/28 08:53:38;;;;;;;25.00;6.93;;;;;;;17.66;100.00;101593.91;5054137;28;20653;-68
2022/10/28 08:56:13;;;;;;;17.80;7.15;;;;;;;17.72;100.00;101597.97;5046090;28;20494;-68
2022/10/28 08:58:43;;;;;;;20.40;8.63;;;;;;;17.67;100.00;101619.06;5059287;28;20036;-67
2022/10/28 09:01:19;;;;;;;23.27;6.88;;;;;;;17.81;100.00;101613.44;5056120;28;20892;-67
2022/10/28 09:03:48;;;;;;;17.35;6.57;;;;;;;17.84;100.00;101605.94;5067330;28;20045;-68
2022/10/28 09:06:14;;;;;;;18.27;7.25;;;;;;;17.76;100.00;101612.94;5054195;28;20109;-68
2022/10/28 09:08:43;;;;;;;17.17;7.32;;;;;;;17.88;100.00;101611.09;5056224;28;20036;-68
2022/10/28 09:11:26;;;;;;;16.38;6.65;;;;;;;17.99;100.00;101601.13;5055284;28;20037;-67
2022/10/28 09:13:51;;;;;;;18.27;6.78;;;;;;;18.16;100.00;101606.97;5056224;28;20048;-68
2022/10/28 09:16:48;;;;;;;20.45;6.90;;;;;;;18.43;100.00;101609.22;5054505;28;20033;-68
2022/10/28 09:19:46;;;;;;;20.33;7.38;;;;;;;18.27;100.00;101615.03;5054220;28;20040;-68
2022/10/28 09:22:47;;;;;;;15.20;6.72;;;;;;;18.59;100.00;101610.47;5049797;28;20036;-68
2022/10/28 09:25:25;;;;;;;23.45;6.63;;;;;;;18.75;100.00;101604.66;5056813;28;20143;-68
2022/10/28 09:28:19;;;;;;;14.63;6.45;;;;;;;18.86;100.00;101599.19;5056847;28;20104;-69
2022/10/28 09:30:57;;;;;;;17.17;6.32;;;;;;;19.24;100.00;101599.56;5052985;28;21115;-69
2022/10/28 09:33:43;;;;;;;15.52;6.82;;;;;;;19.45;98.70;101597.66;5071180;28;20094;-69
2022/10/28 09:36:16;;;;;;;24.38;8.00;;;;;;;19.77;96.97;101599.34;5037133;28;20501;-66
2022/10/28 09:38:43;;;;;;;25.15;7.30;;;;;;;19.99;95.49;101596.41;5054610;28;20053;-68
2022/10/28 09:41:31;;;;;;;24.55;7.07;;;;;;;19.77;96.92;101585.81;5056219;28;20047;-67
2022/10/28 09:44:13;;;;;;;12.77;7.07;;;;;;;19.76;96.94;101595.78;5057042;28;20047;-66
2022/10/28 09:46:39;;;;;;;24.27;7.13;;;;;;;19.91;96.11;101607.06;5056100;28;20044;-69
2022/10/28 09:49:13;;;;;;;28.83;7.20;;;;;;;19.87;96.74;101609.19;5051002;28;20047;-67
2022/10/28 09:51:51;;;;;;;19.10;6.38;;;;;;;20.02;94.67;101616.94;5051953;28;20073;-68
2022/10/28 09:54:20;;;;;;;18.25;6.47;;;;;;;19.82;95.58;101611.47;5073142;28;20044;-68
2022/10/28 09:56:46;;;;;;;16.90;6.18;;;;;;;20.08;93.98;101611.81;5056826;28;20036;-69
2022/10/28 09:59:14;;;;;;;17.45;6.07;;;;;;;19.97;96.22;101605.66;5051831;28;20089;-68
2022/10/28 10:01:41;;;;;;;21.50;6.22;;;;;;;20.06;94.16;101608.38;5078455;28;20032;-66
2022/10/28 10:04:19;;;;;;;23.38;5.88;;;;;;;20.17;91.86;101610.09;5054442;28;20098;-68
2022/10/28 10:06:51;;;;;;;21.17;6.38;;;;;;;20.37;92.96;101609.13;5048738;28;20113;-68
2022/10/28 10:09:26;;;;;;;17.40;6.05;;;;;;;20.43;93.28;101621.25;5058730;28;20131;-68
2022/10/28 10:11:55;;;;;;;20.83;5.82;;;;;;;20.53;92.33;101626.69;5058932;28;20039;-67
2022/10/28 10:14:27;;;;;;;25.52;6.28;;;;;;;20.57;91.69;101620.84;5052374;28;20078;-67
2022/10/28 10:17:04;;;;;;;20.80;5.35;;;;;;;20.68;91.21;101617.13;5052565;28;20044;-67
2022/10/28 10:19:56;;;;;;;17.90;6.15;;;;;;;20.42;92.63;101619.53;5072178;28;20036;-66
2022/10/28 10:22:29;;;;;;;20.83;6.20;;;;;;;20.57;90.89;101617.28;5058347;28;20055;-68
2022/10/28 10:24:55;;;;;;;18.38;6.07;;;;;;;20.56;91.88;101610.16;5059566;28;20481;-67
2022/10/28 10:27:21;;;;;;;14.50;5.45;;;;;;;20.62;89.66;101604.16;5051577;28;20052;-70
2022/10/28 10:29:50;;;;;;;13.35;6.00;;;;;;;20.72;90.80;101612.28;5054852;28;20590;-66
2022/10/28 10:32:18;;;;;;;30.75;6.85;;;;;;;20.72;92.19;101605.00;5058708;28;20047;-66
2022/10/28 10:34:52;;;;;;;14.00;4.88;;;;;;;20.86;90.32;101609.13;5057579;28;20037;-67
2022/10/28 10:37:20;;;;;;;20.65;6.05;;;;;;;20.90;89.93;101607.84;5055775;28;20511;-66
2022/10/28 10:39:58;;;;;;;20.42;4.97;;;;;;;20.87;88.75;101608.97;5072055;28;20103;-67
2022/10/28 10:42:26;;;;;;;21.38;6.57;;;;;;;21.03;88.26;101608.38;5039663;28;20118;-66
2022/10/28 10:45:19;;;;;;;10.25;5.00;;;;;;;21.13;86.77;101605.63;5056702;28;20039;-66
2022/10/28 10:47:44;;;;;;;17.50;6.20;;;;;;;20.92;88.94;101611.25;5068488;28;20067;-67
2022/10/28 10:50:22;;;;;;;12.73;6.05;;;;;;;20.99;87.37;101595.28;5056025;28;20036;-66
2022/10/28 10:52:54;;;;;;;19.25;5.68;;;;;;;21.13;87.70;101608.34;5050495;28;20045;-66
2022/10/28 10:55:30;;;;;;;17.42;5.35;;;;;;;21.02;86.05;101608.53;5051577;28;20040;-66
2022/10/28 10:57:56;;;;;;;8.98;4.78;;;;;;;20.86;89.08;101607.28;5053353;28;20029;-67
2022/10/28 11:00:27;;;;;;;18.45;5.60;;;;;;;21.21;86.76;101601.19;5057316;28;20040;-67
2022/10/28 11:02:53;;;;;;;17.05;6.35;;;;;;;21.21;86.49;101594.91;5059078;28;20090;-70
2022/10/28 11:05:21;;;;;;;15.00;5.25;;;;;;;21.08;87.75;101597.94;5057585;28;20048;-67
2022/10/28 11:07:49;;;;;;;24.05;6.38;;;;;;;21.04;87.00;101596.53;5055602;28;20044;-66
2022/10/28 11:10:27;;;;;;;14.85;5.53;;;;;;;21.33;86.72;101592.88;5073940;28;20048;-67
2022/10/28 11:12:58;;;;;;;12.52;4.97;;;;;;;21.22;86.43;101585.75;5054030;28;20532;-66
2022/10/28 11:15:28;;;;;;;15.02;4.90;;;;;;;21.30;87.10;101580.50;5057865;28;20033;-67
2022/10/28 11:17:58;;;;;;;23.17;6.60;;;;;;;21.31;87.01;101568.63;5055584;28;20065;-66
2022/10/28 11:20:34;;;;;;;15.05;5.47;;;;;;;21.29;85.12;101561.63;5076867;28;20114;-68
2022/10/28 11:23:15;;;;;;;20.15;5.68;;;;;;;21.32;84.91;101556.75;5055525;28;20053;-67